createdAt,value
2022-07-29T00:00:39.704Z,0
2022-07-29T00:01:40.624Z,0
2022-07-29T00:02:41.490Z,0
2022-07-29T00:03:45.835Z,0
2022-07-29T00:04:42.958Z,0
2022-07-29T00:05:42.340Z,0
2022-07-29T00:06:43.564Z,0
2022-07-29T00:07:47.440Z,0
2022-07-29T00:08:47.641Z,0
2022-07-29T00:10:01.312Z,0
2022-07-29T00:10:44.240Z,0
2022-07-29T00:11:44.870Z,0
2022-07-29T00:12:48.247Z,0
2022-07-29T00:13:54.548Z,0
2022-07-29T00:14:49.807Z,0
2022-07-29T00:15:47.454Z,0
2022-07-29T00:16:49.161Z,0
2022-07-29T00:17:49.171Z,0
2022-07-29T00:18:50.375Z,0
2022-07-29T00:19:56.570Z,0
2022-07-29T00:20:51.780Z,0
2022-07-29T00:21:52.047Z,0
2022-07-29T00:22:52.252Z,0
2022-07-29T00:23:53.890Z,0
2022-07-29T00:24:54.116Z,0
2022-07-29T00:25:54.322Z,0
2022-07-29T00:26:55.249Z,0
2022-07-29T00:29:17.382Z,0
2022-07-29T00:29:56.618Z,0
2022-07-29T00:31:57.655Z,0
2022-07-29T00:32:57.379Z,0
2022-07-29T00:34:16.433Z,0
2022-07-29T00:35:01.971Z,0
2022-07-29T00:36:00.585Z,0
2022-07-29T00:36:59.857Z,0
2022-07-29T00:38:01.166Z,0
2022-07-29T00:39:01.321Z,0
2022-07-29T00:40:02.549Z,0
2022-07-29T00:41:02.469Z,0
2022-07-29T00:42:04.726Z,0
2022-07-29T00:43:04.909Z,0
2022-07-29T00:44:04.113Z,0
2022-07-29T00:45:03.735Z,0
2022-07-29T00:46:04.665Z,0
2022-07-29T00:47:06.005Z,0
2022-07-29T00:48:06.551Z,0
2022-07-29T00:49:07.207Z,0
2022-07-29T00:50:07.474Z,0
2022-07-29T00:51:07.430Z,0
2022-07-29T00:52:08.639Z,0
2022-07-29T00:53:09.880Z,0
2022-07-29T00:54:10.131Z,0
2022-07-29T00:55:13.791Z,0
2022-07-29T00:56:11.036Z,0
2022-07-29T00:57:12.081Z,0
2022-07-29T00:58:11.116Z,0
2022-07-29T00:59:12.349Z,0
2022-07-29T01:00:12.293Z,0
2022-07-29T01:01:13.297Z,0
2022-07-29T01:02:14.013Z,0
2022-07-29T01:03:15.812Z,0
2022-07-29T01:04:15.196Z,0
2022-07-29T01:05:15.111Z,0
2022-07-29T01:06:15.776Z,0
2022-07-29T01:07:16.707Z,0
2022-07-29T01:08:17.016Z,0
2022-07-29T01:09:17.219Z,0
2022-07-29T01:10:17.398Z,0
2022-07-29T01:14:39.042Z,0
2022-07-29T01:15:20.664Z,0
2022-07-29T01:16:21.997Z,0
2022-07-29T01:17:22.283Z,0
2022-07-29T01:18:33.060Z,0
2022-07-29T01:19:22.987Z,0
2022-07-29T01:20:24.208Z,0
2022-07-29T01:21:26.919Z,0
2022-07-29T01:22:25.152Z,0
2022-07-29T01:23:25.088Z,0
2022-07-29T01:25:27.392Z,0
2022-07-29T01:26:32.445Z,0
2022-07-29T01:27:32.805Z,0
2022-07-29T01:28:31.649Z,0
2022-07-29T01:29:36.297Z,0
2022-07-29T01:30:36.219Z,0
2022-07-29T01:32:05.093Z,0
2022-07-29T01:32:45.860Z,0
2022-07-29T01:33:31.822Z,0
2022-07-29T01:34:32.818Z,0
2022-07-29T01:35:32.453Z,0
2022-07-29T01:36:33.392Z,0
2022-07-29T01:37:33.602Z,0
2022-07-29T01:38:33.957Z,0
2022-07-29T01:39:35.811Z,0
2022-07-29T01:40:35.324Z,0
2022-07-29T01:41:35.841Z,0
2022-07-29T01:42:36.355Z,0
2022-07-29T01:43:36.271Z,0
2022-07-29T01:44:37.480Z,0
2022-07-29T01:45:38.724Z,0
2022-07-29T01:46:38.990Z,0
2022-07-29T01:47:40.941Z,0
2022-07-29T01:48:38.998Z,0
2022-07-29T01:49:40.134Z,0
2022-07-29T01:50:40.647Z,0
2022-07-29T01:51:40.580Z,0
2022-07-29T01:52:40.922Z,0
2022-07-29T01:53:49.369Z,0
2022-07-29T01:54:42.582Z,0
2022-07-29T01:55:45.244Z,0
2022-07-29T01:56:43.157Z,0
2022-07-29T01:57:44.503Z,0
2022-07-29T01:58:46.047Z,0
2022-07-29T01:59:49.924Z,0
2022-07-29T02:00:49.308Z,0
2022-07-29T02:01:46.905Z,0
2022-07-29T02:02:47.158Z,0
2022-07-29T02:03:47.367Z,0
2022-07-29T02:04:48.531Z,0
2022-07-29T02:05:48.823Z,0
2022-07-29T02:06:48.764Z,0
2022-07-29T02:07:49.416Z,0
2022-07-29T02:08:50.479Z,0
2022-07-29T02:09:50.417Z,0
2022-07-29T02:10:51.034Z,0
2022-07-29T02:11:52.542Z,0
2022-07-29T02:12:56.420Z,0
2022-07-29T02:13:52.357Z,0
2022-07-29T02:14:53.516Z,0
2022-07-29T02:15:53.970Z,0
2022-07-29T02:16:54.571Z,0
2022-07-29T02:17:57.541Z,0
2022-07-29T02:18:55.976Z,0
2022-07-29T02:19:55.605Z,0
2022-07-29T02:20:56.835Z,0
2022-07-29T02:21:57.055Z,0
2022-07-29T02:22:57.276Z,0
2022-07-29T02:24:08.176Z,0
2022-07-29T02:24:58.690Z,0
2022-07-29T02:26:00.144Z,0
2022-07-29T02:26:59.375Z,0
2022-07-29T02:27:59.609Z,0
2022-07-29T02:29:00.333Z,0
2022-07-29T02:30:00.853Z,0
2022-07-29T02:31:01.587Z,0
2022-07-29T02:32:02.103Z,0
2022-07-29T02:33:03.966Z,0
2022-07-29T02:34:03.184Z,0
2022-07-29T02:35:03.394Z,0
2022-07-29T02:36:03.619Z,0
2022-07-29T02:37:06.158Z,0
2022-07-29T02:38:04.663Z,0
2022-07-29T02:39:04.992Z,0
2022-07-29T02:40:04.909Z,0
2022-07-29T02:41:06.425Z,0
2022-07-29T02:42:06.656Z,0
2022-07-29T02:43:06.896Z,0
2022-07-29T02:44:07.461Z,0
2022-07-29T02:45:07.702Z,0
2022-07-29T02:46:12.648Z,0
2022-07-29T02:47:09.117Z,0
2022-07-29T02:48:09.342Z,0
2022-07-29T02:49:09.777Z,0
2022-07-29T02:50:11.556Z,0
2022-07-29T02:51:10.833Z,0
2022-07-29T02:52:11.024Z,0
2022-07-29T02:53:13.516Z,0
2022-07-29T02:54:12.544Z,0
2022-07-29T02:55:13.845Z,0
2022-07-29T02:56:13.742Z,0
2022-07-29T02:57:14.961Z,0
2022-07-29T02:58:15.160Z,0
2022-07-29T02:59:15.449Z,0
2022-07-29T03:00:18.109Z,0
2022-07-29T03:01:21.812Z,0
2022-07-29T03:02:18.665Z,0
2022-07-29T03:03:19.000Z,0
2022-07-29T03:04:20.963Z,0
2022-07-29T03:05:22.189Z,0
2022-07-29T03:06:49.315Z,0
2022-07-29T03:07:21.235Z,0
2022-07-29T03:08:21.582Z,0
2022-07-29T03:09:28.548Z,0
2022-07-29T03:10:30.011Z,0
2022-07-29T03:11:39.044Z,0
2022-07-29T03:12:24.360Z,0
2022-07-29T03:13:24.276Z,0
2022-07-29T03:14:27.180Z,0
2022-07-29T03:15:25.302Z,0
2022-07-29T03:16:25.343Z,0
2022-07-29T03:17:25.351Z,0
2022-07-29T03:18:26.851Z,0
2022-07-29T03:19:27.140Z,0
2022-07-29T03:20:27.341Z,0
2022-07-29T03:21:27.262Z,0
2022-07-29T03:22:30.434Z,0
2022-07-29T03:23:33.100Z,0
2022-07-29T03:24:30.524Z,0
2022-07-29T03:25:30.132Z,0
2022-07-29T03:26:31.074Z,0
2022-07-29T03:27:31.586Z,0
2022-07-29T03:28:37.772Z,0
2022-07-29T03:29:38.313Z,0
2022-07-29T03:30:34.330Z,0
2022-07-29T03:31:33.414Z,0
2022-07-29T03:32:41.522Z,0
2022-07-29T03:33:33.128Z,0
2022-07-29T03:34:35.021Z,0
2022-07-29T03:35:33.341Z,0
2022-07-29T03:36:34.842Z,0
2022-07-29T03:37:35.044Z,0
2022-07-29T03:38:37.618Z,0
2022-07-29T03:39:36.213Z,0
2022-07-29T03:40:36.439Z,0
2022-07-29T03:41:39.241Z,0
2022-07-29T03:42:45.307Z,0
2022-07-29T03:43:38.548Z,0
2022-07-29T03:44:38.772Z,0
2022-07-29T03:45:39.264Z,0
2022-07-29T03:46:40.057Z,0
2022-07-29T03:48:12.042Z,0
2022-07-29T03:48:41.519Z,0
2022-07-29T03:49:41.566Z,0
2022-07-29T03:50:41.171Z,0
2022-07-29T03:51:49.798Z,0
2022-07-29T03:52:43.020Z,0
2022-07-29T03:53:43.049Z,0
2022-07-29T03:54:44.261Z,0
2022-07-29T03:55:44.766Z,0
2022-07-29T03:56:45.260Z,0
2022-07-29T03:57:45.195Z,0
2022-07-29T03:58:45.687Z,0
2022-07-29T03:59:46.001Z,0
2022-07-29T04:00:46.501Z,0
2022-07-29T04:01:47.102Z,0
2022-07-29T04:02:47.305Z,0
2022-07-29T04:03:48.500Z,0
2022-07-29T04:04:48.497Z,0
2022-07-29T04:05:48.812Z,0
2022-07-29T04:06:51.164Z,0
2022-07-29T04:07:50.091Z,0
2022-07-29T04:08:51.031Z,5.63
2022-07-29T04:09:52.032Z,5.63
2022-07-29T04:10:52.656Z,5.63
2022-07-29T04:12:19.266Z,5.63
2022-07-29T04:12:54.759Z,5.63
2022-07-29T04:13:55.255Z,5.63
2022-07-29T04:14:55.754Z,5.63
2022-07-29T04:15:56.058Z,5.63
2022-07-29T04:16:56.565Z,5.63
2022-07-29T04:18:00.338Z,5.63
2022-07-29T04:18:57.352Z,5.63
2022-07-29T04:19:57.364Z,5.63
2022-07-29T04:20:58.570Z,5.63
2022-07-29T04:21:59.497Z,5.63
2022-07-29T04:23:00.123Z,5.63
2022-07-29T04:24:09.848Z,11.25
2022-07-29T04:25:05.798Z,5.63
2022-07-29T04:26:02.997Z,11.25
2022-07-29T04:27:03.200Z,11.25
2022-07-29T04:28:03.126Z,11.25
2022-07-29T04:29:04.617Z,11.25
2022-07-29T04:30:13.783Z,11.25
2022-07-29T04:31:06.106Z,11.25
2022-07-29T04:32:06.749Z,11.25
2022-07-29T04:33:07.653Z,11.25
2022-07-29T04:34:08.559Z,11.25
2022-07-29T04:35:09.776Z,11.25
2022-07-29T04:36:34.122Z,11.25
2022-07-29T04:37:10.452Z,11.25
2022-07-29T04:38:15.656Z,11.25
2022-07-29T04:39:11.802Z,11.25
2022-07-29T04:40:12.254Z,11.25
2022-07-29T04:41:12.854Z,5.63
2022-07-29T04:42:19.360Z,5.63
2022-07-29T04:43:20.677Z,11.25
2022-07-29T04:44:17.764Z,11.25
2022-07-29T04:45:22.210Z,11.25
2022-07-29T04:46:17.517Z,16.88
2022-07-29T04:47:18.077Z,16.88
2022-07-29T04:48:17.999Z,16.88
2022-07-29T04:49:19.980Z,16.88
2022-07-29T04:50:20.004Z,16.88
2022-07-29T04:51:21.510Z,16.88
2022-07-29T04:52:21.450Z,16.88
2022-07-29T04:53:21.673Z,11.25
2022-07-29T04:54:22.361Z,16.88
2022-07-29T04:55:22.582Z,16.88
2022-07-29T04:56:23.082Z,16.88
2022-07-29T04:57:22.730Z,16.88
2022-07-29T04:58:24.228Z,16.88
2022-07-29T04:59:24.695Z,16.88
2022-07-29T05:00:28.100Z,16.88
2022-07-29T05:01:25.846Z,16.88
2022-07-29T05:02:26.318Z,16.88
2022-07-29T05:03:27.140Z,16.88
2022-07-29T05:04:27.211Z,16.88
2022-07-29T05:05:28.136Z,22.5
2022-07-29T05:06:27.749Z,22.5
2022-07-29T05:07:28.671Z,22.5
2022-07-29T05:08:28.290Z,22.5
2022-07-29T05:09:29.245Z,22.5
2022-07-29T05:10:29.973Z,22.5
2022-07-29T05:11:41.360Z,22.5
2022-07-29T05:12:30.988Z,22.5
2022-07-29T05:13:50.481Z,22.5
2022-07-29T05:14:33.782Z,22.5
2022-07-29T05:15:34.064Z,28.13
2022-07-29T05:16:34.650Z,28.13
2022-07-29T05:17:34.557Z,28.13
2022-07-29T05:18:37.592Z,28.13
2022-07-29T05:19:39.368Z,28.13
2022-07-29T05:20:37.781Z,28.13
2022-07-29T05:21:37.709Z,28.13
2022-07-29T05:22:38.993Z,28.13
2022-07-29T05:23:38.897Z,28.13
2022-07-29T05:24:40.102Z,22.5
2022-07-29T05:25:57.017Z,22.5
2022-07-29T05:26:40.940Z,22.5
2022-07-29T05:27:41.864Z,28.13
2022-07-29T05:28:43.068Z,28.13
2022-07-29T05:30:02.209Z,28.13
2022-07-29T05:30:50.741Z,28.13
2022-07-29T05:31:51.125Z,22.5
2022-07-29T05:32:50.746Z,33.75
2022-07-29T05:33:53.728Z,28.13
2022-07-29T05:35:03.054Z,28.13
2022-07-29T05:35:55.303Z,33.75
2022-07-29T05:36:53.725Z,33.75
2022-07-29T05:37:53.650Z,33.75
2022-07-29T05:38:54.062Z,33.75
2022-07-29T05:40:09.782Z,33.75
2022-07-29T05:40:57.792Z,33.75
2022-07-29T05:42:03.214Z,33.75
2022-07-29T05:42:59.437Z,33.75
2022-07-29T05:43:59.648Z,33.75
2022-07-29T05:44:59.549Z,33.75
2022-07-29T05:46:07.324Z,33.75
2022-07-29T05:47:01.495Z,33.75
2022-07-29T05:48:01.714Z,39.38
2022-07-29T05:49:01.687Z,39.38
2022-07-29T05:50:02.650Z,39.38
2022-07-29T05:51:03.370Z,39.38
2022-07-29T05:52:04.281Z,39.38
2022-07-29T05:53:24.437Z,39.38
2022-07-29T05:54:05.654Z,39.38
2022-07-29T05:55:06.651Z,39.38
2022-07-29T05:56:06.873Z,39.38
2022-07-29T05:57:07.074Z,39.38
2022-07-29T05:58:07.439Z,39.38
2022-07-29T05:59:15.182Z,39.38
2022-07-29T06:00:08.524Z,39.38
2022-07-29T06:01:08.789Z,39.38
2022-07-29T06:02:09.742Z,39.38
2022-07-29T06:03:10.982Z,39.38
2022-07-29T06:04:11.566Z,39.38
2022-07-29T06:05:18.431Z,39.38
2022-07-29T06:06:12.341Z,39.38
2022-07-29T06:07:12.691Z,39.38
2022-07-29T06:08:13.997Z,39.38
2022-07-29T06:09:24.954Z,39.38
2022-07-29T06:10:14.857Z,39.38
2022-07-29T06:11:16.161Z,45
2022-07-29T06:12:16.654Z,45
2022-07-29T06:13:16.573Z,45
2022-07-29T06:14:18.097Z,45
2022-07-29T06:15:17.896Z,45
2022-07-29T06:19:22.634Z,28.13
2022-07-29T06:20:33.025Z,45
2022-07-29T06:21:24.030Z,50.63
2022-07-29T06:22:24.255Z,50.63
2022-07-29T06:23:24.181Z,50.63
2022-07-29T06:24:26.449Z,50.63
2022-07-29T06:25:25.382Z,50.63
2022-07-29T06:26:39.575Z,50.63
2022-07-29T06:27:27.332Z,50.63
2022-07-29T06:28:27.258Z,50.63
2022-07-29T06:29:27.168Z,50.63
2022-07-29T06:30:27.697Z,50.63
2022-07-29T06:31:27.966Z,50.63
2022-07-29T06:32:42.781Z,50.63
2022-07-29T06:33:28.649Z,50.63
2022-07-29T06:34:32.200Z,50.63
2022-07-29T06:36:06.191Z,56.25
2022-07-29T06:36:35.953Z,56.25
2022-07-29T06:37:33.871Z,50.63
2022-07-29T06:39:02.795Z,56.25
2022-07-29T06:39:32.272Z,56.25
2022-07-29T06:40:32.593Z,56.25
2022-07-29T06:42:37.265Z,56.25
2022-07-29T06:43:45.627Z,56.25
2022-07-29T06:44:35.102Z,56.25
2022-07-29T06:45:39.201Z,61.88
2022-07-29T06:46:36.191Z,61.88
2022-07-29T06:47:36.439Z,61.88
2022-07-29T06:48:36.064Z,61.88
2022-07-29T06:49:37.857Z,61.88
2022-07-29T06:50:39.985Z,61.88
2022-07-29T06:51:40.367Z,61.88
2022-07-29T06:52:39.314Z,61.88
2022-07-29T06:53:40.271Z,61.88
2022-07-29T06:54:41.236Z,61.88
2022-07-29T06:55:42.239Z,61.88
2022-07-29T06:56:45.356Z,67.5
2022-07-29T06:57:42.870Z,61.88
2022-07-29T06:58:42.518Z,67.5
2022-07-29T06:59:52.001Z,67.5
2022-07-29T07:00:44.012Z,67.5
2022-07-29T07:01:45.486Z,67.5
2022-07-29T07:02:45.841Z,73.13
2022-07-29T07:03:46.652Z,73.13
2022-07-29T07:04:47.287Z,78.75
2022-07-29T07:05:48.591Z,78.75
2022-07-29T07:06:48.804Z,84.38
2022-07-29T07:07:49.004Z,90
2022-07-29T07:08:49.210Z,95.63
2022-07-29T07:09:57.369Z,95.63
2022-07-29T07:10:50.994Z,101.25
2022-07-29T07:11:55.056Z,106.88
2022-07-29T07:12:51.568Z,106.88
2022-07-29T07:13:52.835Z,106.88
2022-07-29T07:14:51.758Z,112.5
2022-07-29T07:15:56.155Z,123.75
2022-07-29T07:16:53.268Z,95.63
2022-07-29T07:17:53.976Z,241.88
2022-07-29T07:18:53.621Z,343.13
2022-07-29T07:19:54.933Z,118.13
2022-07-29T07:20:55.316Z,219.38
2022-07-29T07:21:55.336Z,73.13
2022-07-29T07:22:55.638Z,67.5
2022-07-29T07:23:56.844Z,95.63
2022-07-29T07:24:57.505Z,101.25
2022-07-29T07:25:58.169Z,264.38
2022-07-29T07:26:59.374Z,90
2022-07-29T07:27:59.315Z,247.5
2022-07-29T07:29:00.821Z,202.5
2022-07-29T07:30:01.114Z,129.38
2022-07-29T07:31:01.744Z,106.88
2022-07-29T07:32:06.580Z,101.25
2022-07-29T07:33:02.793Z,95.63
2022-07-29T07:34:03.431Z,101.25
2022-07-29T07:35:04.671Z,101.25
2022-07-29T07:36:04.571Z,101.25
2022-07-29T07:37:05.489Z,95.63
2022-07-29T07:38:06.704Z,95.63
2022-07-29T07:39:06.631Z,101.25
2022-07-29T07:40:08.139Z,95.63
2022-07-29T07:41:07.898Z,90
2022-07-29T07:42:08.798Z,95.63
2022-07-29T07:43:09.728Z,95.63
2022-07-29T07:44:12.932Z,106.88
2022-07-29T07:45:29.323Z,118.13
2022-07-29T07:46:11.283Z,123.75
2022-07-29T07:47:23.756Z,118.13
2022-07-29T07:48:11.506Z,123.75
2022-07-29T07:49:12.664Z,112.5
2022-07-29T07:50:18.175Z,95.63
2022-07-29T07:51:14.275Z,73.13
2022-07-29T07:52:14.201Z,73.13
2022-07-29T07:53:15.722Z,73.13
2022-07-29T07:54:16.493Z,67.5
2022-07-29T07:55:15.902Z,56.25
2022-07-29T07:56:39.936Z,50.63
2022-07-29T07:57:17.156Z,50.63
2022-07-29T07:58:17.385Z,50.63
2022-07-29T07:59:17.631Z,50.63
2022-07-29T08:00:18.607Z,50.63
2022-07-29T08:01:19.564Z,50.63
2022-07-29T08:02:20.502Z,56.25
2022-07-29T08:03:33.619Z,67.5
2022-07-29T08:04:26.834Z,78.75
2022-07-29T08:05:29.314Z,78.75
2022-07-29T08:06:22.222Z,112.5
2022-07-29T08:07:23.434Z,118.13
2022-07-29T08:08:23.646Z,112.5
2022-07-29T08:09:44.090Z,78.75
2022-07-29T08:10:23.879Z,90
2022-07-29T08:11:26.212Z,202.5
2022-07-29T08:12:25.140Z,180
2022-07-29T08:13:25.344Z,140.63
2022-07-29T08:14:26.063Z,309.38
2022-07-29T08:15:28.384Z,348.75
2022-07-29T08:16:27.422Z,90
2022-07-29T08:17:27.975Z,90
2022-07-29T08:18:28.482Z,95.63
2022-07-29T08:19:29.701Z,101.25
2022-07-29T08:20:28.837Z,118.13
2022-07-29T08:21:31.280Z,112.5
2022-07-29T08:22:30.219Z,106.88
2022-07-29T08:23:45.901Z,185.63
2022-07-29T08:24:30.410Z,123.75
2022-07-29T08:25:33.492Z,95.63
2022-07-29T08:26:31.436Z,101.25
2022-07-29T08:27:58.832Z,101.25
2022-07-29T08:28:37.050Z,129.38
2022-07-29T08:29:36.957Z,140.63
2022-07-29T08:30:34.270Z,84.38
2022-07-29T08:31:34.958Z,90
2022-07-29T08:33:06.834Z,84.38
2022-07-29T08:33:35.773Z,84.38
2022-07-29T08:34:43.617Z,112.5
2022-07-29T08:35:40.775Z,174.38
2022-07-29T08:36:36.986Z,185.63
2022-07-29T08:37:37.219Z,163.13
2022-07-29T08:38:37.726Z,185.63
2022-07-29T08:39:37.074Z,174.38
2022-07-29T08:40:48.230Z,196.88
2022-07-29T08:41:38.238Z,298.13
2022-07-29T08:42:38.891Z,180
2022-07-29T08:43:40.118Z,140.63
2022-07-29T08:44:47.290Z,168.75
2022-07-29T08:45:40.627Z,140.63
2022-07-29T08:46:40.516Z,106.88
2022-07-29T08:47:41.068Z,101.25
2022-07-29T08:48:41.595Z,106.88
2022-07-29T08:49:40.881Z,118.13
2022-07-29T08:50:41.801Z,118.13
2022-07-29T08:51:55.383Z,123.75
2022-07-29T08:52:43.502Z,123.75
2022-07-29T08:53:44.331Z,123.75
2022-07-29T08:54:45.291Z,123.75
2022-07-29T08:55:45.799Z,112.5
2022-07-29T08:56:45.753Z,112.5
2022-07-29T08:57:57.300Z,118.13
2022-07-29T08:58:56.093Z,129.38
2022-07-29T08:59:51.949Z,163.13
2022-07-29T09:00:51.736Z,123.75
2022-07-29T09:02:03.529Z,129.38
2022-07-29T09:02:53.429Z,129.38
2022-07-29T09:03:53.524Z,112.5
2022-07-29T09:04:53.769Z,101.25
2022-07-29T09:05:59.492Z,101.25
2022-07-29T09:06:54.851Z,84.38
2022-07-29T09:07:56.063Z,78.75
2022-07-29T09:08:56.270Z,78.75
2022-07-29T09:09:56.492Z,78.75
2022-07-29T09:10:57.420Z,78.75
2022-07-29T09:11:58.474Z,78.75
2022-07-29T09:12:58.403Z,78.75
2022-07-29T09:13:59.043Z,84.38
2022-07-29T09:15:00.251Z,90
2022-07-29T09:16:02.561Z,90
2022-07-29T09:17:08.322Z,95.63
2022-07-29T09:18:01.003Z,95.63
2022-07-29T09:19:01.354Z,90
2022-07-29T09:20:02.282Z,90
2022-07-29T09:21:03.424Z,95.63
2022-07-29T09:22:04.118Z,95.63
2022-07-29T09:23:04.111Z,90
2022-07-29T09:24:04.023Z,90
2022-07-29T09:25:05.020Z,95.63
2022-07-29T09:26:05.228Z,95.63
2022-07-29T09:27:06.830Z,101.25
2022-07-29T09:28:06.334Z,106.88
2022-07-29T09:29:05.690Z,106.88
2022-07-29T09:30:07.644Z,106.88
2022-07-29T09:31:07.630Z,112.5
2022-07-29T09:32:08.274Z,112.5
2022-07-29T09:33:09.358Z,112.5
2022-07-29T09:34:09.611Z,106.88
2022-07-29T09:35:14.857Z,106.88
2022-07-29T09:36:16.515Z,106.88
2022-07-29T09:37:11.792Z,101.25
2022-07-29T09:38:11.770Z,101.25
2022-07-29T09:39:12.724Z,101.25
2022-07-29T09:40:17.323Z,101.25
2022-07-29T09:41:17.382Z,106.88
2022-07-29T09:42:13.655Z,106.88
2022-07-29T09:43:13.852Z,106.88
2022-07-29T09:44:14.229Z,112.5
2022-07-29T09:45:14.873Z,135
2022-07-29T09:46:23.022Z,129.38
2022-07-29T09:47:17.465Z,123.75
2022-07-29T09:48:17.108Z,112.5
2022-07-29T09:49:20.376Z,123.75
2022-07-29T09:50:18.333Z,298.13
2022-07-29T09:51:29.872Z,258.75
2022-07-29T09:52:25.848Z,236.25
2022-07-29T09:53:25.755Z,225
2022-07-29T09:54:26.671Z,348.75
2022-07-29T09:55:34.974Z,421.88
2022-07-29T09:56:27.872Z,163.13
2022-07-29T09:57:36.016Z,151.88
2022-07-29T09:58:29.960Z,112.5
2022-07-29T09:59:29.898Z,129.38
2022-07-29T10:00:31.494Z,106.88
2022-07-29T10:01:31.476Z,106.88
2022-07-29T10:02:39.258Z,118.13
2022-07-29T10:03:34.130Z,129.38
2022-07-29T10:04:34.106Z,146.25
2022-07-29T10:05:41.920Z,196.88
2022-07-29T10:06:36.142Z,376.88
2022-07-29T10:07:35.786Z,371.25
2022-07-29T10:08:37.008Z,371.25
2022-07-29T10:09:38.937Z,371.25
2022-07-29T10:10:37.275Z,331.88
2022-07-29T10:12:01.029Z,151.88
2022-07-29T10:12:48.560Z,185.63
2022-07-29T10:13:49.203Z,213.75
2022-07-29T10:14:50.432Z,151.88
2022-07-29T10:15:51.977Z,157.5
2022-07-29T10:16:52.055Z,140.63
2022-07-29T10:17:58.005Z,146.25
2022-07-29T10:18:53.649Z,140.63
2022-07-29T10:19:54.884Z,129.38
2022-07-29T10:20:55.093Z,129.38
2022-07-29T10:22:00.729Z,123.75
2022-07-29T10:23:11.614Z,123.75
2022-07-29T10:24:25.695Z,140.63
2022-07-29T10:25:12.632Z,140.63
2022-07-29T10:26:13.835Z,202.5
2022-07-29T10:27:13.456Z,174.38
2022-07-29T10:28:19.873Z,208.13
2022-07-29T10:29:15.725Z,163.13
2022-07-29T10:30:15.742Z,360
2022-07-29T10:31:16.639Z,365.63
2022-07-29T10:32:16.863Z,191.25
2022-07-29T10:33:17.507Z,236.25
2022-07-29T10:34:18.474Z,331.88
2022-07-29T10:35:19.573Z,331.88
2022-07-29T10:36:21.872Z,320.63
2022-07-29T10:37:22.260Z,343.13
2022-07-29T10:38:30.292Z,360
2022-07-29T10:39:34.475Z,360
2022-07-29T10:40:27.869Z,365.63
2022-07-29T10:41:36.252Z,365.63
2022-07-29T10:42:40.447Z,360
2022-07-29T10:43:37.398Z,360
2022-07-29T10:44:37.119Z,360
2022-07-29T10:45:36.927Z,360
2022-07-29T10:46:37.386Z,365.63
2022-07-29T10:47:36.767Z,371.25
2022-07-29T10:48:40.439Z,382.5
2022-07-29T10:49:46.339Z,376.88
2022-07-29T10:50:39.077Z,376.88
2022-07-29T10:51:39.305Z,382.5
2022-07-29T10:52:51.073Z,382.5
2022-07-29T10:53:48.685Z,388.13
2022-07-29T10:54:42.605Z,393.75
2022-07-29T10:55:43.634Z,405
2022-07-29T10:56:44.195Z,405
2022-07-29T10:58:12.857Z,320.63
2022-07-29T10:58:55.418Z,371.25
2022-07-29T10:59:53.245Z,427.5
2022-07-29T11:00:50.838Z,433.13
2022-07-29T11:02:41.239Z,433.13
2022-07-29T11:03:04.488Z,241.88
2022-07-29T11:04:14.435Z,421.88
2022-07-29T11:05:11.628Z,433.13
2022-07-29T11:06:14.261Z,185.63
2022-07-29T11:07:15.127Z,438.75
2022-07-29T11:08:19.459Z,106.88
2022-07-29T11:09:25.552Z,416.25
2022-07-29T11:10:15.111Z,354.38
2022-07-29T11:11:18.579Z,135
2022-07-29T11:12:21.398Z,303.75
2022-07-29T11:13:17.223Z,191.25
2022-07-29T11:14:26.354Z,163.13
2022-07-29T11:15:19.251Z,106.88
2022-07-29T11:16:22.215Z,106.88
2022-07-29T11:17:19.566Z,101.25
2022-07-29T11:18:28.942Z,95.63
2022-07-29T11:19:21.492Z,95.63
2022-07-29T11:20:26.162Z,90
2022-07-29T11:21:28.504Z,84.38
2022-07-29T11:22:22.057Z,78.75
2022-07-29T11:23:23.983Z,78.75
2022-07-29T11:27:33.834Z,101.25
2022-07-29T11:28:36.450Z,101.25
2022-07-29T11:29:29.725Z,101.25
2022-07-29T11:30:31.572Z,95.63
2022-07-29T11:31:30.272Z,95.63
2022-07-29T11:32:44.584Z,112.5
2022-07-29T11:34:11.111Z,129.38
2022-07-29T11:34:34.793Z,180
2022-07-29T11:36:06.277Z,146.25
2022-07-29T11:36:39.855Z,151.88
2022-07-29T11:37:50.977Z,388.13
2022-07-29T11:38:47.046Z,393.75
2022-07-29T11:42:57.387Z,382.5
2022-07-29T11:43:56.114Z,376.88
2022-07-29T11:44:55.877Z,382.5
2022-07-29T11:48:57.620Z,135
2022-07-29T11:50:05.375Z,101.25
2022-07-29T11:51:03.431Z,112.5
2022-07-29T11:52:07.803Z,95.63
2022-07-29T11:53:13.919Z,90
2022-07-29T11:54:09.566Z,95.63
2022-07-29T11:58:24.944Z,95.63
2022-07-29T11:59:20.812Z,95.63
2022-07-29T12:00:29.794Z,106.88
2022-07-29T12:01:21.173Z,371.25
2022-07-29T12:02:59.069Z,151.88
2022-07-29T12:03:17.830Z,180
2022-07-29T12:04:19.878Z,123.75
2022-07-29T12:05:53.807Z,135
2022-07-29T12:06:18.653Z,140.63
2022-07-29T12:07:38.159Z,95.63
2022-07-29T12:08:26.223Z,101.25
2022-07-29T12:09:28.117Z,112.5
2022-07-29T12:10:43.168Z,106.88
2022-07-29T12:11:25.908Z,112.5
2022-07-29T12:12:25.264Z,123.75
2022-07-29T12:13:37.349Z,157.5
2022-07-29T12:14:26.029Z,135
2022-07-29T12:15:31.469Z,118.13
2022-07-29T12:16:41.474Z,101.25
2022-07-29T12:17:26.433Z,101.25
2022-07-29T12:18:30.160Z,101.25
2022-07-29T12:19:28.723Z,118.13
2022-07-29T12:20:32.908Z,196.88
2022-07-29T12:21:36.408Z,112.5
2022-07-29T12:22:31.249Z,118.13
2022-07-29T12:23:39.870Z,140.63
2022-07-29T12:24:36.977Z,123.75
2022-07-29T12:25:49.770Z,118.13
2022-07-29T12:26:46.681Z,129.38
2022-07-29T12:27:45.608Z,303.75
2022-07-29T12:28:47.121Z,163.13
2022-07-29T12:30:00.202Z,157.5
2022-07-29T12:30:57.225Z,286.88
2022-07-29T12:32:03.926Z,275.63
2022-07-29T12:32:54.367Z,135
2022-07-29T12:33:54.296Z,146.25
2022-07-29T12:34:55.509Z,163.13
2022-07-29T12:36:22.846Z,135
2022-07-29T12:36:55.479Z,331.88
2022-07-29T12:38:00.939Z,275.63
2022-07-29T12:39:01.622Z,270
2022-07-29T12:39:58.362Z,270
2022-07-29T12:40:58.301Z,275.63
2022-07-29T12:42:13.608Z,275.63
2022-07-29T12:43:00.283Z,264.38
2022-07-29T12:44:00.494Z,258.75
2022-07-29T12:45:00.718Z,253.13
2022-07-29T12:46:01.056Z,253.13
2022-07-29T12:47:02.987Z,258.75
2022-07-29T12:48:02.213Z,258.75
2022-07-29T12:49:04.012Z,264.38
2022-07-29T12:50:02.424Z,253.13
2022-07-29T12:51:03.361Z,253.13
2022-07-29T12:52:04.871Z,253.13
2022-07-29T12:53:04.776Z,247.5
2022-07-29T12:54:05.704Z,258.75
2022-07-29T12:55:08.163Z,163.13
2022-07-29T12:56:20.906Z,129.38
2022-07-29T12:57:07.739Z,101.25
2022-07-29T12:58:07.364Z,112.5
2022-07-29T12:59:08.516Z,157.5
2022-07-29T13:00:09.548Z,219.38
2022-07-29T13:01:17.001Z,225
2022-07-29T13:02:11.918Z,151.88
2022-07-29T13:03:13.460Z,140.63
2022-07-29T13:04:14.127Z,225
2022-07-29T13:05:12.291Z,253.13
2022-07-29T13:06:12.221Z,247.5
2022-07-29T13:07:19.763Z,247.5
2022-07-29T13:08:27.390Z,247.5
2022-07-29T13:09:14.395Z,247.5
2022-07-29T13:10:14.109Z,241.88
2022-07-29T13:11:15.175Z,236.25
2022-07-29T13:12:17.214Z,241.88
2022-07-29T13:13:17.120Z,241.88
2022-07-29T13:14:23.723Z,241.88
2022-07-29T13:15:21.156Z,241.88
2022-07-29T13:16:19.454Z,241.88
2022-07-29T13:17:19.840Z,241.88
2022-07-29T13:18:24.787Z,208.13
2022-07-29T13:19:21.019Z,219.38
2022-07-29T13:20:25.452Z,213.75
2022-07-29T13:21:24.393Z,196.88
2022-07-29T13:22:23.062Z,163.13
2022-07-29T13:23:23.699Z,129.38
2022-07-29T13:24:30.847Z,196.88
2022-07-29T13:25:24.680Z,208.13
2022-07-29T13:26:25.611Z,213.75
2022-07-29T13:27:27.118Z,213.75
2022-07-29T13:28:27.620Z,174.38
2022-07-29T13:29:31.605Z,213.75
2022-07-29T13:30:26.956Z,219.38
2022-07-29T13:31:28.705Z,225
2022-07-29T13:32:33.634Z,213.75
2022-07-29T13:33:29.575Z,196.88
2022-07-29T13:34:29.497Z,219.38
2022-07-29T13:35:30.418Z,196.88
2022-07-29T13:36:31.627Z,106.88
2022-07-29T13:37:32.376Z,151.88
2022-07-29T13:38:41.983Z,191.25
2022-07-29T13:39:34.218Z,185.63
2022-07-29T13:40:35.510Z,174.38
2022-07-29T13:41:37.293Z,151.88
2022-07-29T13:42:36.232Z,174.38
2022-07-29T13:43:35.869Z,168.75
2022-07-29T13:44:36.787Z,106.88
2022-07-29T13:45:40.476Z,191.25
2022-07-29T13:46:39.544Z,174.38
2022-07-29T13:47:54.893Z,185.63
2022-07-29T13:48:40.134Z,146.25
2022-07-29T13:49:40.890Z,106.88
2022-07-29T13:50:41.009Z,101.25
2022-07-29T13:51:41.947Z,101.25
2022-07-29T13:52:42.903Z,73.13